createdAt,value
2022-10-25T00:00:11.729Z,17.78
2022-10-25T00:01:11.126Z,17.785
2022-10-25T00:02:11.800Z,17.77
2022-10-25T00:03:12.445Z,17.775
2022-10-25T00:04:11.868Z,17.76
2022-10-25T00:05:12.043Z,17.755
2022-10-25T00:06:11.451Z,17.745
2022-10-25T00:07:11.936Z,17.735
2022-10-25T00:08:11.864Z,17.72
2022-10-25T00:09:11.658Z,17.73
2022-10-25T00:10:12.298Z,17.71
2022-10-25T00:11:12.146Z,17.7
2022-10-25T00:12:11.103Z,17.672
2022-10-25T00:13:12.154Z,17.672
2022-10-25T00:14:11.729Z,17.6783
2022-10-25T00:15:15.855Z,17.657
2022-10-25T00:16:12.180Z,17.609
2022-10-25T00:17:11.839Z,17.605
2022-10-25T00:18:12.252Z,17.61
2022-10-25T00:19:11.987Z,17.575
2022-10-25T00:20:11.523Z,17.565
2022-10-25T00:21:12.673Z,17.53
2022-10-25T00:22:12.369Z,17.535
2022-10-25T00:23:12.027Z,17.505
2022-10-25T00:24:15.930Z,17.5128
2022-10-25T00:25:12.411Z,17.5436
2022-10-25T00:26:10.951Z,17.549
2022-10-25T00:27:12.975Z,17.5461
2022-10-25T00:28:12.328Z,17.5218
2022-10-25T00:29:11.837Z,17.535
2022-10-25T00:30:12.512Z,17.515
2022-10-25T00:31:12.586Z,17.495
2022-10-25T00:32:12.029Z,17.48
2022-10-25T00:33:12.340Z,17.46
2022-10-25T00:34:11.603Z,17.455
2022-10-25T00:35:15.714Z,17.495
2022-10-25T00:36:12.736Z,17.525
2022-10-25T00:37:12.418Z,17.525
2022-10-25T00:38:12.238Z,17.525
2022-10-25T00:39:12.620Z,17.515
2022-10-25T00:40:12.464Z,17.5
2022-10-25T00:41:11.703Z,17.495
2022-10-25T00:42:12.388Z,17.545
2022-10-25T00:43:12.342Z,17.555
2022-10-25T00:44:12.173Z,17.56
2022-10-25T00:45:12.693Z,17.575
2022-10-25T00:46:12.603Z,17.6
2022-10-25T00:47:12.401Z,17.59
2022-10-25T00:48:12.549Z,17.627
2022-10-25T00:49:12.564Z,17.615
2022-10-25T00:50:12.325Z,17.672
2022-10-25T00:51:12.781Z,17.672
2022-10-25T00:52:12.941Z,17.643
2022-10-25T00:53:12.931Z,17.666
2022-10-25T00:54:12.702Z,17.637
2022-10-25T00:55:12.891Z,17.649
2022-10-25T00:56:12.853Z,17.655
2022-10-25T00:57:12.871Z,17.643
2022-10-25T00:58:15.285Z,17.636
2022-10-25T00:59:13.059Z,17.645
2022-10-25T01:00:12.923Z,17.643
2022-10-25T01:01:12.823Z,17.61
2022-10-25T01:02:13.457Z,17.6
2022-10-25T01:03:13.012Z,17.6
2022-10-25T01:04:12.340Z,17.575
2022-10-25T01:05:13.017Z,17.575
2022-10-25T01:06:12.521Z,17.615
2022-10-25T01:07:16.006Z,17.6208
2022-10-25T01:08:12.658Z,17.595
2022-10-25T01:09:12.857Z,17.6
2022-10-25T01:10:12.326Z,17.59
2022-10-25T01:11:12.867Z,17.59
2022-10-25T01:12:12.225Z,17.585
2022-10-25T01:13:12.335Z,17.575
2022-10-25T01:14:16.479Z,17.595
2022-10-25T01:15:11.546Z,17.62
2022-10-25T01:16:12.350Z,17.6
2022-10-25T01:17:12.619Z,17.595
2022-10-25T01:18:12.048Z,17.595
2022-10-25T01:19:13.284Z,17.59
2022-10-25T01:20:12.468Z,17.575
2022-10-25T01:21:12.641Z,17.57
2022-10-25T01:22:12.657Z,17.555
2022-10-25T01:23:24.259Z,17.555
2022-10-25T01:24:12.561Z,17.555
2022-10-25T01:25:13.387Z,17.55
2022-10-25T01:26:12.489Z,17.545
2022-10-25T01:27:12.013Z,17.55
2022-10-25T01:28:12.698Z,17.555
2022-10-25T01:29:13.037Z,17.56
2022-10-25T01:30:11.795Z,17.54
2022-10-25T01:31:12.867Z,17.54
2022-10-25T01:32:12.146Z,17.53
2022-10-25T01:33:11.949Z,17.52
2022-10-25T01:34:12.495Z,17.55
2022-10-25T01:35:13.295Z,17.555
2022-10-25T01:37:12.322Z,17.54
2022-10-25T01:38:13.329Z,17.51
2022-10-25T01:39:13.012Z,17.5
2022-10-25T01:40:12.241Z,17.48
2022-10-25T01:41:12.268Z,17.4781
2022-10-25T01:42:12.735Z,17.463
2022-10-25T01:43:12.469Z,17.465
2022-10-25T01:44:13.641Z,17.46
2022-10-25T01:45:12.729Z,17.445
2022-10-25T01:46:12.260Z,17.4345
2022-10-25T01:47:13.269Z,17.4307
2022-10-25T01:48:12.588Z,17.42
2022-10-25T01:49:11.492Z,17.429
2022-10-25T01:50:12.595Z,17.4307
2022-10-25T01:51:11.586Z,17.4181
2022-10-25T01:52:12.718Z,17.403
2022-10-25T01:53:12.687Z,17.3909
2022-10-25T01:54:11.821Z,17.3683
2022-10-25T01:55:13.124Z,17.362
2022-10-25T01:56:12.675Z,17.39
2022-10-25T01:57:12.226Z,17.415
2022-10-25T01:58:12.199Z,17.385
2022-10-25T01:59:12.003Z,17.394
2022-10-25T02:00:11.021Z,17.3741
2022-10-25T02:01:12.971Z,17.333
2022-10-25T02:02:11.763Z,17.3158
2022-10-25T02:03:12.734Z,17.3
2022-10-25T02:04:12.859Z,17.3
2022-10-25T02:05:11.991Z,17.29
2022-10-25T02:06:16.824Z,17.2684
2022-10-25T02:07:10.930Z,17.2554
2022-10-25T02:08:11.485Z,17.23
2022-10-25T02:09:12.742Z,17.245
2022-10-25T02:10:16.446Z,17.222
2022-10-25T02:11:11.408Z,17.194
2022-10-25T02:12:12.124Z,17.2
2022-10-25T02:13:16.580Z,17.2
2022-10-25T02:14:11.131Z,17.21
2022-10-25T02:15:12.304Z,17.205
2022-10-25T02:16:11.353Z,17.183
2022-10-25T02:17:12.211Z,17.177
2022-10-25T02:18:11.005Z,17.188
2022-10-25T02:19:11.960Z,17.2
2022-10-25T02:20:11.196Z,17.21
2022-10-25T02:21:13.085Z,17.199
2022-10-25T02:22:11.389Z,17.225
2022-10-25T02:23:12.572Z,17.22
2022-10-25T02:24:11.409Z,17.235
2022-10-25T02:25:11.288Z,17.215
2022-10-25T02:26:12.021Z,17.23
2022-10-25T02:27:11.700Z,17.21
2022-10-25T02:28:11.727Z,17.23
2022-10-25T02:29:12.458Z,17.235
2022-10-25T02:30:13.123Z,17.235
2022-10-25T02:31:12.686Z,17.255
2022-10-25T02:32:12.134Z,17.24
2022-10-25T02:33:11.577Z,17.245
2022-10-25T02:34:11.244Z,17.205
2022-10-25T02:35:14.300Z,17.22
2022-10-25T02:36:11.641Z,17.255
2022-10-25T02:37:12.169Z,17.245
2022-10-25T02:38:12.031Z,17.21
2022-10-25T02:39:11.619Z,17.235
2022-10-25T02:40:12.525Z,17.235
2022-10-25T02:41:11.825Z,17.235
2022-10-25T02:42:11.133Z,17.25
2022-10-25T02:43:11.916Z,17.235
2022-10-25T02:44:12.014Z,17.245
2022-10-25T02:45:11.297Z,17.24
2022-10-25T02:46:13.183Z,17.22
2022-10-25T02:47:11.846Z,17.23
2022-10-25T02:48:11.544Z,17.22
2022-10-25T02:49:12.169Z,17.21
2022-10-25T02:50:11.887Z,17.215
2022-10-25T02:51:12.300Z,17.215
2022-10-25T02:52:12.456Z,17.23
2022-10-25T02:53:10.359Z,17.245
2022-10-25T02:54:11.713Z,17.24
2022-10-25T02:55:13.151Z,17.235
2022-10-25T02:56:11.582Z,17.255
2022-10-25T02:57:11.488Z,17.26
2022-10-25T02:58:11.211Z,17.265
2022-10-25T02:59:11.899Z,17.26
2022-10-25T03:01:12.396Z,17.27
2022-10-25T03:02:11.883Z,17.26
2022-10-25T03:03:12.300Z,17.27
2022-10-25T03:04:11.749Z,17.255
2022-10-25T03:05:11.525Z,17.225
2022-10-25T03:06:11.673Z,17.245
2022-10-25T03:07:12.153Z,17.24
2022-10-25T03:08:11.127Z,17.181
2022-10-25T03:09:12.291Z,17.168
2022-10-25T03:10:11.912Z,17.182
2022-10-25T03:11:11.460Z,17.1836
2022-10-25T03:12:15.542Z,17.152
2022-10-25T03:13:12.043Z,17.133
2022-10-25T03:14:11.129Z,17.137
2022-10-25T03:15:11.943Z,17.115
2022-10-25T03:16:11.774Z,17.105
2022-10-25T03:17:11.418Z,17.09
2022-10-25T03:18:13.225Z,17.0784
2022-10-25T03:19:11.988Z,17.0818
2022-10-25T03:20:11.352Z,17.09
2022-10-25T03:21:12.464Z,17.055
2022-10-25T03:22:11.456Z,17.07
2022-10-25T03:23:12.000Z,17.055
2022-10-25T03:24:11.848Z,17.065
2022-10-25T03:25:11.871Z,17.06
2022-10-25T03:26:12.011Z,17.07
2022-10-25T03:27:11.679Z,17.045
2022-10-25T03:28:11.613Z,17.04
2022-10-25T03:29:11.969Z,16.965
2022-10-25T03:30:11.911Z,16.93
2022-10-25T03:31:11.959Z,16.945
2022-10-25T03:32:12.106Z,16.95
2022-10-25T03:33:12.170Z,16.98
2022-10-25T03:34:12.218Z,16.95
2022-10-25T03:35:12.291Z,16.96
2022-10-25T03:36:12.429Z,16.95
2022-10-25T03:37:12.327Z,16.945
2022-10-25T03:38:11.467Z,16.965
2022-10-25T03:39:12.197Z,16.945
2022-10-25T03:40:12.485Z,16.95
2022-10-25T03:41:12.544Z,16.96
2022-10-25T03:42:15.304Z,16.955
2022-10-25T03:43:12.623Z,16.95
2022-10-25T03:44:12.246Z,16.95
2022-10-25T03:45:15.437Z,16.97
2022-10-25T03:46:12.274Z,16.955
2022-10-25T03:47:12.315Z,16.935
2022-10-25T03:48:11.904Z,16.945
2022-10-25T03:49:12.673Z,16.975
2022-10-25T03:50:11.858Z,16.99
2022-10-25T03:51:12.442Z,16.955
2022-10-25T03:52:12.333Z,16.98
2022-10-25T03:53:11.853Z,16.965
2022-10-25T03:54:12.547Z,16.96
2022-10-25T03:55:12.446Z,16.94
2022-10-25T03:56:11.852Z,16.955
2022-10-25T03:57:13.186Z,16.955
2022-10-25T03:58:12.690Z,16.955
2022-10-25T03:59:12.836Z,16.965
2022-10-25T04:00:12.788Z,16.955
2022-10-25T04:01:12.240Z,16.96
2022-10-25T04:02:13.015Z,16.97
2022-10-25T04:03:12.416Z,16.98
2022-10-25T04:04:12.425Z,16.96
2022-10-25T04:05:12.868Z,16.965
2022-10-25T04:06:12.445Z,16.935
2022-10-25T04:07:12.325Z,16.935
2022-10-25T04:08:15.630Z,16.9215
2022-10-25T04:09:12.722Z,16.9345
2022-10-25T04:10:13.209Z,16.895
2022-10-25T04:11:12.676Z,16.89
2022-10-25T04:12:11.846Z,16.915
2022-10-25T04:13:12.954Z,16.95
2022-10-25T04:14:13.470Z,16.935
2022-10-25T04:15:12.471Z,16.92
2022-10-25T04:16:15.777Z,16.9
2022-10-25T04:17:12.751Z,16.884
2022-10-25T04:18:12.963Z,16.873
2022-10-25T04:19:13.385Z,16.894
2022-10-25T04:20:12.845Z,16.884
2022-10-25T04:21:12.445Z,16.8791
2022-10-25T04:22:12.850Z,16.805
2022-10-25T04:23:12.935Z,16.81
2022-10-25T04:24:11.895Z,16.829
2022-10-25T04:25:13.224Z,16.853
2022-10-25T04:26:12.889Z,16.89
2022-10-25T04:27:12.874Z,16.8909
2022-10-25T04:28:13.069Z,16.889
2022-10-25T04:29:12.569Z,16.92
2022-10-25T04:30:12.117Z,16.929
2022-10-25T04:31:12.997Z,16.893
2022-10-25T04:32:12.822Z,16.9
2022-10-25T04:33:12.284Z,16.895
2022-10-25T04:34:12.759Z,16.916
2022-10-25T04:35:12.567Z,16.9454
2022-10-25T04:36:12.293Z,16.93
2022-10-25T04:37:13.258Z,16.965
2022-10-25T04:38:12.756Z,16.995
2022-10-25T04:39:12.701Z,17.02
2022-10-25T04:40:13.203Z,17.04
2022-10-25T04:41:12.613Z,17.07
2022-10-25T04:42:13.485Z,17.065
2022-10-25T04:43:13.718Z,17.065
2022-10-25T04:44:12.876Z,17.09
2022-10-25T04:45:13.469Z,17.1
2022-10-25T04:46:12.651Z,17.1
2022-10-25T04:47:12.098Z,17.09
2022-10-25T04:48:17.168Z,17.083
2022-10-25T04:49:13.253Z,17.0818
2022-10-25T04:50:11.687Z,17.055
2022-10-25T04:51:13.052Z,17.06
2022-10-25T04:52:12.431Z,17.085
2022-10-25T04:53:12.118Z,17.095
2022-10-25T04:54:12.240Z,17.075
2022-10-25T04:55:12.028Z,17.05
2022-10-25T04:56:14.416Z,17.03
2022-10-25T04:57:12.722Z,17.025
2022-10-25T04:58:12.029Z,17
2022-10-25T04:59:13.050Z,17.015
2022-10-25T05:00:12.629Z,17.04
2022-10-25T05:01:12.748Z,17.015
2022-10-25T05:02:12.213Z,17.01
2022-10-25T05:03:13.369Z,17.025
2022-10-25T05:04:11.688Z,17.055
2022-10-25T05:05:12.725Z,17.05
2022-10-25T05:06:12.469Z,17.035
2022-10-25T05:07:11.656Z,17.075
2022-10-25T05:08:12.814Z,17.05
2022-10-25T05:09:12.894Z,17.06
2022-10-25T05:10:11.545Z,17.065
2022-10-25T05:11:12.832Z,17.065
2022-10-25T05:12:11.852Z,17.08
2022-10-25T05:13:11.312Z,17.075
2022-10-25T05:14:12.660Z,17.095
2022-10-25T05:15:11.821Z,17.09
2022-10-25T05:16:10.788Z,17.1
2022-10-25T05:17:13.938Z,17.095
2022-10-25T05:18:12.117Z,17.1
2022-10-25T05:19:12.928Z,17.09
2022-10-25T05:20:12.294Z,17.1258
2022-10-25T05:21:12.548Z,17.1
2022-10-25T05:22:12.873Z,17.095
2022-10-25T05:23:12.164Z,17.105
2022-10-25T05:24:11.955Z,17.137
2022-10-25T05:25:12.852Z,17.1316
2022-10-25T05:26:12.395Z,17.1316
2022-10-25T05:27:11.558Z,17.172
2022-10-25T05:28:12.038Z,17.172
2022-10-25T05:29:12.437Z,17.19
2022-10-25T05:30:11.719Z,17.215
2022-10-25T05:31:12.323Z,17.225
2022-10-25T05:32:11.715Z,17.23
2022-10-25T05:33:11.777Z,17.225
2022-10-25T05:34:12.665Z,17.26
2022-10-25T05:35:11.557Z,17.26
2022-10-25T05:36:10.810Z,17.29
2022-10-25T05:37:10.963Z,17.27
2022-10-25T05:38:10.857Z,17.28
2022-10-25T05:39:10.988Z,17.29
2022-10-25T05:40:12.036Z,17.305
2022-10-25T05:41:17.131Z,17.29
2022-10-25T05:42:10.581Z,17.29
2022-10-25T05:43:11.487Z,17.322
2022-10-25T05:44:11.238Z,17.333
2022-10-25T05:45:12.184Z,17.333
2022-10-25T05:46:11.441Z,17.356
2022-10-25T05:47:11.075Z,17.339
2022-10-25T05:48:11.443Z,17.345
2022-10-25T05:49:11.552Z,17.339
2022-10-25T05:50:10.627Z,17.341
2022-10-25T05:51:28.807Z,17.358
2022-10-25T05:52:11.648Z,17.35
2022-10-25T05:53:10.801Z,17.384
2022-10-25T05:54:12.174Z,17.363
2022-10-25T05:55:11.444Z,17.354
2022-10-25T05:56:10.701Z,17.3683
2022-10-25T05:57:11.703Z,17.3692
2022-10-25T05:58:11.170Z,17.348
2022-10-25T05:59:12.005Z,17.385
2022-10-25T06:00:11.353Z,17.389
2022-10-25T06:01:11.121Z,17.42
2022-10-25T06:02:12.179Z,17.39
2022-10-25T06:03:11.899Z,17.4
2022-10-25T06:04:10.415Z,17.394
2022-10-25T06:05:11.898Z,17.395
2022-10-25T06:06:11.886Z,17.395
2022-10-25T06:07:11.089Z,17.41
2022-10-25T06:08:11.806Z,17.42
2022-10-25T06:09:11.780Z,17.425
2022-10-25T06:10:11.762Z,17.42
2022-10-25T06:11:11.822Z,17.435
2022-10-25T06:12:12.645Z,17.43
2022-10-25T06:13:12.239Z,17.42
2022-10-25T06:14:11.701Z,17.415
2022-10-25T06:15:11.516Z,17.425
2022-10-25T06:16:12.482Z,17.425
2022-10-25T06:17:12.176Z,17.42
2022-10-25T06:18:11.465Z,17.42
2022-10-25T06:19:12.248Z,17.415
2022-10-25T06:20:12.164Z,17.41
2022-10-25T06:21:11.726Z,17.41
2022-10-25T06:22:12.092Z,17.39
2022-10-25T06:23:11.698Z,17.385
2022-10-25T06:24:11.332Z,17.39
2022-10-25T06:25:11.935Z,17.3791
2022-10-25T06:26:11.903Z,17.367
2022-10-25T06:27:11.630Z,17.356
2022-10-25T06:28:12.057Z,17.3
2022-10-25T06:29:11.739Z,17.285
2022-10-25T06:30:11.816Z,17.285
2022-10-25T06:31:11.972Z,17.275
2022-10-25T06:32:11.480Z,17.25
2022-10-25T06:33:11.580Z,17.255
2022-10-25T06:34:11.996Z,17.235
2022-10-25T06:35:11.848Z,17.22
2022-10-25T06:36:11.824Z,17.21
2022-10-25T06:37:11.868Z,17.2
2022-10-25T06:38:11.935Z,17.188
2022-10-25T06:39:12.295Z,17.1841
2022-10-25T06:40:11.889Z,17.16
2022-10-25T06:41:11.249Z,17.149
2022-10-25T06:42:11.962Z,17.143
2022-10-25T06:43:12.380Z,17.12
2022-10-25T06:44:12.138Z,17.1208
2022-10-25T06:45:11.962Z,17.1258
2022-10-25T06:46:12.632Z,17.115
2022-10-25T06:47:18.123Z,17.08
2022-10-25T06:48:11.913Z,17.085
2022-10-25T06:49:12.021Z,17.085
2022-10-25T06:50:12.086Z,17.075
2022-10-25T06:51:11.724Z,17.07
2022-10-25T06:52:12.529Z,17.085
2022-10-25T06:53:11.744Z,17.095
2022-10-25T06:54:12.010Z,17.12
2022-10-25T06:55:12.555Z,17.105
2022-10-25T06:56:14.634Z,17.132
2022-10-25T06:57:11.723Z,17.143
2022-10-25T06:58:12.561Z,17.144
2022-10-25T06:59:13.235Z,17.155
2022-10-25T07:00:12.396Z,17.19
2022-10-25T07:01:13.154Z,17.16
2022-10-25T07:02:11.511Z,17.155
2022-10-25T07:03:12.570Z,17.143
2022-10-25T07:04:12.030Z,17.194
2022-10-25T07:05:12.395Z,17.215
2022-10-25T07:06:12.482Z,17.225
2022-10-25T07:07:12.044Z,17.25
2022-10-25T07:08:12.572Z,17.28
2022-10-25T07:09:12.616Z,17.3
2022-10-25T07:10:12.071Z,17.311
2022-10-25T07:11:12.477Z,17.3683
2022-10-25T07:12:12.908Z,17.366
2022-10-25T07:13:12.749Z,17.435
2022-10-25T07:14:12.180Z,17.4618
2022-10-25T07:15:11.924Z,17.4781
2022-10-25T07:16:16.111Z,17.525
2022-10-25T07:17:12.798Z,17.5654
2022-10-25T07:18:12.153Z,17.6036
2022-10-25T07:19:12.690Z,17.642
2022-10-25T07:20:12.494Z,17.645
2022-10-25T07:21:12.499Z,17.683
2022-10-25T07:22:12.532Z,17.72
2022-10-25T07:23:12.600Z,17.75
2022-10-25T07:24:12.296Z,17.765
2022-10-25T07:25:12.541Z,17.76
2022-10-25T07:26:12.198Z,17.805
2022-10-25T07:27:12.776Z,17.845
2022-10-25T07:28:12.676Z,17.89
2022-10-25T07:29:12.368Z,17.92
2022-10-25T07:30:13.055Z,17.945
2022-10-25T07:31:12.776Z,17.965
2022-10-25T07:32:12.952Z,17.99
2022-10-25T07:33:12.577Z,18.03
2022-10-25T07:34:12.616Z,18.045
2022-10-25T07:35:13.106Z,18.085
2022-10-25T07:36:12.350Z,18.105
2022-10-25T07:37:12.129Z,18.11
2022-10-25T07:38:12.622Z,18.143
2022-10-25T07:39:12.692Z,18.148
2022-10-25T07:40:12.201Z,18.182
2022-10-25T07:41:12.665Z,18.1891
2022-10-25T07:42:12.562Z,18.166
2022-10-25T07:43:12.178Z,18.166
2022-10-25T07:44:16.735Z,18.16
2022-10-25T07:45:13.525Z,18.132
2022-10-25T07:46:13.479Z,18.105
2022-10-25T07:47:12.932Z,18.137
2022-10-25T07:48:12.604Z,18.16
2022-10-25T07:49:13.224Z,18.1783
2022-10-25T07:50:12.277Z,18.16
2022-10-25T07:51:13.362Z,18.194
2022-10-25T07:52:13.139Z,18.235
2022-10-25T07:53:16.047Z,18.254
2022-10-25T07:54:13.311Z,18.2663
2022-10-25T07:55:12.806Z,18.27
2022-10-25T07:56:20.396Z,18.275
2022-10-25T07:57:13.696Z,18.311
2022-10-25T07:58:12.532Z,18.345
2022-10-25T07:59:12.313Z,18.356
2022-10-25T08:00:13.711Z,18.384
2022-10-25T08:01:12.727Z,18.425
2022-10-25T08:02:12.105Z,18.465
2022-10-25T08:03:13.649Z,18.5
2022-10-25T08:04:12.771Z,18.54
2022-10-25T08:05:12.150Z,18.555
2022-10-25T08:06:12.938Z,18.58
2022-10-25T08:07:13.741Z,18.58
2022-10-25T08:08:13.292Z,18.575
2022-10-25T08:09:14.710Z,18.61
2022-10-25T08:10:12.204Z,18.632
2022-10-25T08:11:12.812Z,18.615
2022-10-25T08:12:12.408Z,18.626
2022-10-25T08:13:12.557Z,18.649
2022-10-25T08:14:12.959Z,18.643
2022-10-25T08:15:12.807Z,18.666
2022-10-25T08:16:11.815Z,18.725
2022-10-25T08:17:13.035Z,18.74
2022-10-25T08:18:13.118Z,18.77
2022-10-25T08:19:11.782Z,18.8216
2022-10-25T08:20:12.598Z,18.8791
2022-10-25T08:21:12.602Z,18.915
2022-10-25T08:22:11.800Z,18.97
2022-10-25T08:23:12.298Z,19
2022-10-25T08:24:12.939Z,19.05
2022-10-25T08:25:11.777Z,19.095
2022-10-25T08:26:12.538Z,19.137
2022-10-25T08:27:11.809Z,19.188
2022-10-25T08:28:12.393Z,19.235
2022-10-25T08:29:12.420Z,19.295
2022-10-25T08:30:11.653Z,19.345
2022-10-25T08:31:12.573Z,19.41
2022-10-25T08:32:11.966Z,19.46
2022-10-25T08:33:12.321Z,19.525
2022-10-25T08:35:11.734Z,19.6327
2022-10-25T08:36:12.183Z,19.7084
2022-10-25T08:37:12.371Z,19.74
2022-10-25T08:38:11.918Z,19.7827
2022-10-25T08:39:12.301Z,19.843
2022-10-25T08:40:11.985Z,19.8963
2022-10-25T08:41:11.995Z,19.935
2022-10-25T08:42:12.420Z,19.9953
2022-10-25T08:43:11.351Z,20.049
2022-10-25T08:44:12.383Z,20.0692
2022-10-25T08:45:11.846Z,20.127
2022-10-25T08:46:11.662Z,20.16
2022-10-25T08:47:11.971Z,20.205
2022-10-25T08:48:12.396Z,20.24
2022-10-25T08:49:11.202Z,20.265
2022-10-25T08:50:12.300Z,20.27
2022-10-25T08:51:12.270Z,20.3
2022-10-25T08:52:15.311Z,20.316
2022-10-25T08:53:12.197Z,20.345
2022-10-25T08:54:11.665Z,20.356
2022-10-25T08:55:12.332Z,20.395
2022-10-25T08:56:16.501Z,20.415
2022-10-25T08:57:15.418Z,20.435
2022-10-25T08:58:12.616Z,20.47
2022-10-25T08:59:12.254Z,20.485
2022-10-25T09:00:12.355Z,20.5
2022-10-25T09:01:11.811Z,20.545
2022-10-25T09:02:12.196Z,20.56
2022-10-25T09:03:15.187Z,20.565
2022-10-25T09:04:12.369Z,20.55
2022-10-25T09:05:16.855Z,20.523
2022-10-25T09:06:12.047Z,20.554
2022-10-25T09:07:11.288Z,20.57
2022-10-25T09:08:12.031Z,20.6
2022-10-25T09:09:11.621Z,20.626
2022-10-25T09:10:11.792Z,20.6258
2022-10-25T09:11:12.419Z,20.6258
2022-10-25T09:12:12.074Z,20.605
2022-10-25T09:13:11.285Z,20.6258
2022-10-25T09:14:12.081Z,20.649
2022-10-25T09:15:16.790Z,20.6841
2022-10-25T09:16:11.710Z,20.7
2022-10-25T09:17:12.028Z,20.71
2022-10-25T09:18:11.900Z,20.725
2022-10-25T09:19:11.471Z,20.72
2022-10-25T09:20:12.279Z,20.735
2022-10-25T09:21:14.897Z,20.765
2022-10-25T09:22:11.367Z,20.77
2022-10-25T09:23:11.937Z,20.77
2022-10-25T09:24:11.368Z,20.755
2022-10-25T09:25:11.906Z,20.79
2022-10-25T09:26:11.759Z,20.78
2022-10-25T09:27:11.642Z,20.78
2022-10-25T09:28:13.007Z,20.816
2022-10-25T09:29:11.612Z,20.839
2022-10-25T09:30:12.912Z,20.8216
2022-10-25T09:31:12.045Z,20.856
2022-10-25T09:32:12.863Z,20.8741
2022-10-25T09:33:12.321Z,20.805
2022-10-25T09:34:11.720Z,20.78
2022-10-25T09:35:12.008Z,20.755
2022-10-25T09:36:12.102Z,20.725
2022-10-25T09:37:11.455Z,20.72
2022-10-25T09:38:12.491Z,20.715
2022-10-25T09:39:15.707Z,20.688
2022-10-25T09:40:12.017Z,20.715
2022-10-25T09:41:11.434Z,20.688
2022-10-25T09:42:11.635Z,20.665
2022-10-25T09:43:11.682Z,20.69
2022-10-25T09:44:11.345Z,20.655
2022-10-25T09:45:12.008Z,20.665
2022-10-25T09:46:12.101Z,20.695
2022-10-25T09:47:11.349Z,20.672
2022-10-25T09:48:12.291Z,20.649
2022-10-25T09:49:11.581Z,20.699
2022-10-25T09:50:11.756Z,20.66
2022-10-25T09:51:11.757Z,20.6208
2022-10-25T09:52:12.052Z,20.621
2022-10-25T09:53:11.759Z,20.6258
2022-10-25T09:54:11.704Z,20.6208
2022-10-25T09:55:12.034Z,20.605
2022-10-25T09:56:11.702Z,20.595
2022-10-25T09:57:11.546Z,20.5818
2022-10-25T09:58:12.221Z,20.583
2022-10-25T09:59:11.918Z,20.6
2022-10-25T10:00:11.625Z,20.6
2022-10-25T10:01:12.319Z,20.621
2022-10-25T10:02:12.171Z,20.683
2022-10-25T10:03:11.671Z,20.7172
2022-10-25T10:04:12.423Z,20.773
2022-10-25T10:05:12.169Z,20.829
2022-10-25T10:06:11.866Z,20.856
2022-10-25T10:07:12.377Z,20.92
2022-10-25T10:08:12.429Z,20.97
2022-10-25T10:09:11.935Z,21.02
2022-10-25T10:10:12.368Z,21.09
2022-10-25T10:11:12.303Z,21.166
2022-10-25T10:12:11.700Z,21.22
2022-10-25T10:13:12.344Z,21.295
2022-10-25T10:14:11.848Z,21.362
2022-10-25T10:15:12.590Z,21.4
2022-10-25T10:16:12.152Z,21.425
2022-10-25T10:17:11.716Z,21.435
2022-10-25T10:18:12.910Z,21.44
2022-10-25T10:19:12.115Z,21.455
2022-10-25T10:20:12.166Z,21.47
2022-10-25T10:21:12.717Z,21.515
2022-10-25T10:22:12.739Z,21.535
2022-10-25T10:23:12.602Z,21.53
2022-10-25T10:24:12.895Z,21.56
2022-10-25T10:25:12.635Z,21.61
2022-10-25T10:26:12.527Z,21.643
2022-10-25T10:27:12.837Z,21.705
2022-10-25T10:28:12.365Z,21.75
2022-10-25T10:29:16.782Z,21.76
2022-10-25T10:30:12.431Z,21.8
2022-10-25T10:31:12.650Z,21.833
2022-10-25T10:32:12.408Z,21.878
2022-10-25T10:33:12.981Z,21.92
2022-10-25T10:34:12.442Z,21.955
2022-10-25T10:35:12.367Z,21.97
2022-10-25T10:36:13.199Z,22
2022-10-25T10:37:12.281Z,22.02
2022-10-25T10:38:12.456Z,22.075
2022-10-25T10:39:13.071Z,22.085
2022-10-25T10:40:12.572Z,22.11
2022-10-25T10:41:12.493Z,22.12
2022-10-25T10:42:15.088Z,22.11
2022-10-25T10:43:12.565Z,22.065
2022-10-25T10:44:12.495Z,22.03
2022-10-25T10:45:12.796Z,22.035
2022-10-25T10:46:12.957Z,22.035
2022-10-25T10:47:13.377Z,22.005
2022-10-25T10:48:12.702Z,22.015
2022-10-25T10:49:12.421Z,22.055
2022-10-25T10:50:13.456Z,22.075
2022-10-25T10:51:31.649Z,22.06
2022-10-25T10:52:12.884Z,22.105
2022-10-25T10:53:13.195Z,22.105
2022-10-25T10:54:12.845Z,22.075
2022-10-25T10:55:12.764Z,22.095
2022-10-25T10:56:13.445Z,22.095
2022-10-25T10:57:13.204Z,22.1
2022-10-25T10:58:12.229Z,22.11
2022-10-25T10:59:13.078Z,22.115
2022-10-25T11:00:13.353Z,22.1258
2022-10-25T11:01:12.455Z,22.095
2022-10-25T11:02:13.399Z,22.05
2022-10-25T11:03:11.452Z,22.025
2022-10-25T11:04:12.431Z,21.995
2022-10-25T11:05:13.076Z,21.975
2022-10-25T11:06:12.589Z,21.945
2022-10-25T11:07:13.372Z,21.91
2022-10-25T11:08:13.237Z,21.872
2022-10-25T11:09:12.707Z,21.867
2022-10-25T11:10:12.385Z,21.833
2022-10-25T11:11:12.479Z,21.78
2022-10-25T11:12:12.611Z,21.75
2022-10-25T11:13:12.701Z,21.725
2022-10-25T11:14:13.119Z,21.71
2022-10-25T11:15:12.667Z,21.71
2022-10-25T11:16:12.384Z,21.725
2022-10-25T11:17:13.271Z,21.755
2022-10-25T11:18:12.491Z,21.822
2022-10-25T11:19:12.090Z,21.854
2022-10-25T11:20:12.647Z,21.94
2022-10-25T11:21:12.352Z,21.978
2022-10-25T11:22:13.502Z,22.0092
2022-10-25T11:23:12.724Z,22.005
2022-10-25T11:24:12.420Z,22.005
2022-10-25T11:25:13.050Z,22.0046
2022-10-25T11:26:12.905Z,22
2022-10-25T11:27:11.986Z,22.0163
2022-10-25T11:28:13.517Z,22.032
2022-10-25T11:29:12.629Z,22.005
2022-10-25T11:30:12.014Z,22
2022-10-25T11:31:12.960Z,21.9861
2022-10-25T11:32:12.391Z,21.989
2022-10-25T11:33:11.863Z,21.98
2022-10-25T11:34:14.314Z,22.023
2022-10-25T11:35:12.058Z,22.0654
2022-10-25T11:36:11.949Z,22.085
2022-10-25T11:37:12.889Z,22.1258
2022-10-25T11:38:12.379Z,22.172
2022-10-25T11:39:11.955Z,22.195
2022-10-25T11:40:12.423Z,22.215
2022-10-25T11:41:13.586Z,22.235
2022-10-25T11:42:11.704Z,22.25
2022-10-25T11:43:12.790Z,22.265
2022-10-25T11:44:12.041Z,22.265
2022-10-25T11:45:11.582Z,22.255
2022-10-25T11:46:12.354Z,22.26
2022-10-25T11:47:12.434Z,22.3
2022-10-25T11:48:11.685Z,22.3158
2022-10-25T11:49:12.087Z,22.362
2022-10-25T11:50:12.196Z,22.42
2022-10-25T11:51:12.416Z,22.46
2022-10-25T11:52:12.211Z,22.49
2022-10-25T11:53:12.210Z,22.545
2022-10-25T11:54:13.788Z,22.595
2022-10-25T11:55:12.147Z,22.666
2022-10-25T11:56:12.413Z,22.72
2022-10-25T11:57:13.018Z,22.77
2022-10-25T11:58:11.831Z,22.8216
2022-10-25T11:59:12.925Z,22.866
2022-10-25T12:00:12.360Z,22.91
2022-10-25T12:01:11.945Z,22.945
2022-10-25T12:02:13.001Z,22.96
2022-10-25T12:03:12.749Z,22.975
2022-10-25T12:04:11.854Z,22.995
2022-10-25T12:05:11.470Z,23.01
2022-10-25T12:06:12.045Z,23.03
2022-10-25T12:07:11.819Z,23.015
2022-10-25T12:08:12.681Z,22.985
2022-10-25T12:09:12.330Z,22.975
2022-10-25T12:10:11.419Z,22.955
2022-10-25T12:11:13.892Z,22.955
2022-10-25T12:12:12.192Z,22.93
2022-10-25T12:13:11.326Z,22.91
2022-10-25T12:14:12.381Z,22.862
2022-10-25T12:15:12.365Z,22.8216
2022-10-25T12:16:11.302Z,22.8
2022-10-25T12:17:12.495Z,22.76
2022-10-25T12:18:11.346Z,22.75
2022-10-25T12:19:11.607Z,22.755
2022-10-25T12:20:11.840Z,22.73
2022-10-25T12:21:11.792Z,22.7
2022-10-25T12:22:11.699Z,22.637
2022-10-25T12:23:12.273Z,22.595
2022-10-25T12:24:11.813Z,22.57
2022-10-25T12:25:10.675Z,22.58
2022-10-25T12:26:12.061Z,22.565
2022-10-25T12:27:11.718Z,22.56
2022-10-25T12:28:12.165Z,22.565
2022-10-25T12:29:11.614Z,22.575
2022-10-25T12:30:12.202Z,22.545
2022-10-25T12:31:12.031Z,22.535
2022-10-25T12:32:15.817Z,22.5
2022-10-25T12:33:11.243Z,22.5054
2022-10-25T12:34:12.158Z,22.495
2022-10-25T12:35:11.573Z,22.51
2022-10-25T12:36:11.972Z,22.51
2022-10-25T12:37:11.888Z,22.55
2022-10-25T12:38:15.146Z,22.583
2022-10-25T12:39:11.409Z,22.651